sensor_id;sensor_type;location;lat;lon;timestamp;temperature;humidity
1578;DHT22;57623;53.608;10.004;2023-07-29T00:01:23;17.70;99.90
1578;DHT22;57623;53.608;10.004;2023-07-29T00:03:51;17.70;99.90
1578;DHT22;57623;53.608;10.004;2023-07-29T00:06:19;17.70;99.90
1578;DHT22;57623;53.608;10.004;2023-07-29T00:08:49;17.70;99.90
1578;DHT22;57623;53.608;10.004;2023-07-29T00:11:16;17.60;99.90
1578;DHT22;57623;53.608;10.004;2023-07-29T00:13:44;17.60;99.90
1578;DHT22;57623;53.608;10.004;2023-07-29T00:16:14;17.50;99.90
1578;DHT22;57623;53.608;10.004;2023-07-29T00:18:44;17.50;99.90
1578;DHT22;57623;53.608;10.004;2023-07-29T00:21:12;17.50;99.90
1578;DHT22;57623;53.608;10.004;2023-07-29T00:23:40;17.40;99.90
1578;DHT22;57623;53.608;10.004;2023-07-29T00:26:09;17.40;99.90
1578;DHT22;57623;53.608;10.004;2023-07-29T00:28:37;17.40;99.90
1578;DHT22;57623;53.608;10.004;2023-07-29T00:31:05;17.40;99.90
1578;DHT22;57623;53.608;10.004;2023-07-29T00:33:33;17.30;99.90
1578;DHT22;57623;53.608;10.004;2023-07-29T00:36:01;17.30;99.90
1578;DHT22;57623;53.608;10.004;2023-07-29T00:38:29;17.30;99.90
1578;DHT22;57623;53.608;10.004;2023-07-29T00:40:57;17.20;99.90
1578;DHT22;57623;53.608;10.004;2023-07-29T00:43:27;17.20;99.90
1578;DHT22;57623;53.608;10.004;2023-07-29T00:45:55;17.20;99.90
1578;DHT22;57623;53.608;10.004;2023-07-29T00:48:24;17.20;99.90
1578;DHT22;57623;53.608;10.004;2023-07-29T00:50:54;17.10;99.90
1578;DHT22;57623;53.608;10.004;2023-07-29T00:53:22;17.10;99.90
1578;DHT22;57623;53.608;10.004;2023-07-29T00:55:50;17.10;99.90
1578;DHT22;57623;53.608;10.004;2023-07-29T00:58:19;17.10;99.90
1578;DHT22;57623;53.608;10.004;2023-07-29T01:00:49;17.10;99.90
1578;DHT22;57623;53.608;10.004;2023-07-29T01:03:18;17.10;99.90
1578;DHT22;57623;53.608;10.004;2023-07-29T01:05:54;17.00;99.90
1578;DHT22;57623;53.608;10.004;2023-07-29T01:08:33;17.00;99.90
1578;DHT22;57623;53.608;10.004;2023-07-29T01:11:14;17.10;99.90
1578;DHT22;57623;53.608;10.004;2023-07-29T01:13:50;17.10;99.90
1578;DHT22;57623;53.608;10.004;2023-07-29T01:16:28;17.10;99.90
1578;DHT22;57623;53.608;10.004;2023-07-29T01:19:00;17.10;99.90
1578;DHT22;57623;53.608;10.004;2023-07-29T01:21:33;17.10;99.90
1578;DHT22;57623;53.608;10.004;2023-07-29T01:24:04;17.10;99.90
1578;DHT22;57623;53.608;10.004;2023-07-29T01:26:32;17.10;99.90
1578;DHT22;57623;53.608;10.004;2023-07-29T01:29:01;17.10;99.90
1578;DHT22;57623;53.608;10.004;2023-07-29T01:31:32;17.10;99.90
1578;DHT22;57623;53.608;10.004;2023-07-29T01:34:08;17.10;99.90
1578;DHT22;57623;53.608;10.004;2023-07-29T01:36:38;17.10;99.90
1578;DHT22;57623;53.608;10.004;2023-07-29T01:39:14;17.10;99.90
1578;DHT22;57623;53.608;10.004;2023-07-29T01:41:43;17.10;99.90
1578;DHT22;57623;53.608;10.004;2023-07-29T01:44:12;17.10;99.90
1578;DHT22;57623;53.608;10.004;2023-07-29T01:46:41;17.10;99.90
1578;DHT22;57623;53.608;10.004;2023-07-29T01:49:09;17.10;99.90
1578;DHT22;57623;53.608;10.004;2023-07-29T01:51:37;17.20;99.90
1578;DHT22;57623;53.608;10.004;2023-07-29T01:54:05;17.20;99.90
1578;DHT22;57623;53.608;10.004;2023-07-29T01:56:34;17.20;99.90
1578;DHT22;57623;53.608;10.004;2023-07-29T01:59:02;17.30;99.90
1578;DHT22;57623;53.608;10.004;2023-07-29T02:01:30;17.30;99.90
1578;DHT22;57623;53.608;10.004;2023-07-29T02:03:59;17.30;99.90
1578;DHT22;57623;53.608;10.004;2023-07-29T02:06:27;17.30;99.90
1578;DHT22;57623;53.608;10.004;2023-07-29T02:08:55;17.40;99.90
1578;DHT22;57623;53.608;10.004;2023-07-29T02:11:23;17.40;99.90
1578;DHT22;57623;53.608;10.004;2023-07-29T02:13:55;17.40;99.90
1578;DHT22;57623;53.608;10.004;2023-07-29T02:16:24;17.50;99.90
1578;DHT22;57623;53.608;10.004;2023-07-29T02:18:52;17.60;99.90
1578;DHT22;57623;53.608;10.004;2023-07-29T02:21:22;17.60;99.90
1578;DHT22;57623;53.608;10.004;2023-07-29T02:23:50;17.70;99.90
1578;DHT22;57623;53.608;10.004;2023-07-29T02:26:18;17.70;99.90
1578;DHT22;57623;53.608;10.004;2023-07-29T02:28:46;17.70;99.90
1578;DHT22;57623;53.608;10.004;2023-07-29T02:31:17;17.70;99.90
1578;DHT22;57623;53.608;10.004;2023-07-29T02:33:45;17.80;99.90
1578;DHT22;57623;53.608;10.004;2023-07-29T02:36:14;17.80;99.90
1578;DHT22;57623;53.608;10.004;2023-07-29T02:38:42;17.80;99.90
1578;DHT22;57623;53.608;10.004;2023-07-29T02:41:11;17.80;99.90
1578;DHT22;57623;53.608;10.004;2023-07-29T02:43:39;17.90;99.90
1578;DHT22;57623;53.608;10.004;2023-07-29T02:46:08;17.90;99.90
1578;DHT22;57623;53.608;10.004;2023-07-29T02:48:38;18.00;99.90
1578;DHT22;57623;53.608;10.004;2023-07-29T02:51:06;18.00;99.90
1578;DHT22;57623;53.608;10.004;2023-07-29T02:53:34;18.00;99.90
1578;DHT22;57623;53.608;10.004;2023-07-29T02:56:03;18.00;99.90
1578;DHT22;57623;53.608;10.004;2023-07-29T02:58:32;18.00;99.90
1578;DHT22;57623;53.608;10.004;2023-07-29T03:01:01;18.10;99.90
1578;DHT22;57623;53.608;10.004;2023-07-29T03:03:29;18.10;99.90
1578;DHT22;57623;53.608;10.004;2023-07-29T03:06:01;18.10;99.90
1578;DHT22;57623;53.608;10.004;2023-07-29T03:08:29;18.00;99.90
1578;DHT22;57623;53.608;10.004;2023-07-29T03:10:58;18.10;99.90
1578;DHT22;57623;53.608;10.004;2023-07-29T03:13:26;18.10;99.90
1578;DHT22;57623;53.608;10.004;2023-07-29T03:15:54;18.10;99.90
1578;DHT22;57623;53.608;10.004;2023-07-29T03:18:31;18.10;99.90
1578;DHT22;57623;53.608;10.004;2023-07-29T03:21:01;18.10;99.90
1578;DHT22;57623;53.608;10.004;2023-07-29T03:23:30;18.10;99.90
1578;DHT22;57623;53.608;10.004;2023-07-29T03:25:59;18.10;99.90
1578;DHT22;57623;53.608;10.004;2023-07-29T03:28:29;18.00;99.90
1578;DHT22;57623;53.608;10.004;2023-07-29T03:30:57;18.00;99.90
1578;DHT22;57623;53.608;10.004;2023-07-29T03:33:25;18.00;99.90
1578;DHT22;57623;53.608;10.004;2023-07-29T03:35:54;17.90;99.90
1578;DHT22;57623;53.608;10.004;2023-07-29T03:38:23;17.90;99.90
1578;DHT22;57623;53.608;10.004;2023-07-29T03:40:51;17.90;99.90
1578;DHT22;57623;53.608;10.004;2023-07-29T03:43:20;17.90;99.90
1578;DHT22;57623;53.608;10.004;2023-07-29T03:45:48;17.90;99.90
1578;DHT22;57623;53.608;10.004;2023-07-29T03:48:16;17.90;99.90
1578;DHT22;57623;53.608;10.004;2023-07-29T03:50:44;17.90;99.90
1578;DHT22;57623;53.608;10.004;2023-07-29T03:53:12;17.90;99.90
1578;DHT22;57623;53.608;10.004;2023-07-29T03:55:41;18.00;99.90
1578;DHT22;57623;53.608;10.004;2023-07-29T03:58:09;18.00;99.90
1578;DHT22;57623;53.608;10.004;2023-07-29T04:00:37;18.00;99.90
1578;DHT22;57623;53.608;10.004;2023-07-29T04:03:05;18.00;99.90
1578;DHT22;57623;53.608;10.004;2023-07-29T04:05:33;18.00;99.90
1578;DHT22;57623;53.608;10.004;2023-07-29T04:08:01;18.00;99.90
1578;DHT22;57623;53.608;10.004;2023-07-29T04:10:29;18.00;99.90
1578;DHT22;57623;53.608;10.004;2023-07-29T04:12:59;18.00;99.90
1578;DHT22;57623;53.608;10.004;2023-07-29T04:15:27;18.00;99.90
1578;DHT22;57623;53.608;10.004;2023-07-29T04:17:56;18.00;99.90
1578;DHT22;57623;53.608;10.004;2023-07-29T04:20:24;18.10;99.90
1578;DHT22;57623;53.608;10.004;2023-07-29T04:22:52;18.10;99.90
1578;DHT22;57623;53.608;10.004;2023-07-29T04:25:20;18.10;99.90
1578;DHT22;57623;53.608;10.004;2023-07-29T04:27:48;18.10;99.90
1578;DHT22;57623;53.608;10.004;2023-07-29T04:30:17;18.10;99.90
1578;DHT22;57623;53.608;10.004;2023-07-29T04:32:45;18.10;99.90
1578;DHT22;57623;53.608;10.004;2023-07-29T04:35:15;18.20;99.90
1578;DHT22;57623;53.608;10.004;2023-07-29T04:37:43;18.10;99.90
1578;DHT22;57623;53.608;10.004;2023-07-29T04:40:11;18.20;99.90
1578;DHT22;57623;53.608;10.004;2023-07-29T04:42:39;18.20;99.90
1578;DHT22;57623;53.608;10.004;2023-07-29T04:45:07;18.20;99.90
1578;DHT22;57623;53.608;10.004;2023-07-29T04:47:37;18.20;99.90
1578;DHT22;57623;53.608;10.004;2023-07-29T04:50:06;18.20;99.90
1578;DHT22;57623;53.608;10.004;2023-07-29T04:52:34;18.20;99.90
1578;DHT22;57623;53.608;10.004;2023-07-29T04:55:02;18.30;99.90
1578;DHT22;57623;53.608;10.004;2023-07-29T04:57:30;18.30;99.90
1578;DHT22;57623;53.608;10.004;2023-07-29T04:59:59;18.30;99.90
1578;DHT22;57623;53.608;10.004;2023-07-29T05:02:27;18.30;99.90
1578;DHT22;57623;53.608;10.004;2023-07-29T05:04:56;18.30;99.90
1578;DHT22;57623;53.608;10.004;2023-07-29T05:07:24;18.30;99.90
1578;DHT22;57623;53.608;10.004;2023-07-29T05:09:52;18.30;99.90
1578;DHT22;57623;53.608;10.004;2023-07-29T05:12:20;18.30;99.90
1578;DHT22;57623;53.608;10.004;2023-07-29T05:14:48;18.30;99.90
1578;DHT22;57623;53.608;10.004;2023-07-29T05:17:16;18.40;99.90
1578;DHT22;57623;53.608;10.004;2023-07-29T05:19:44;18.40;99.90
1578;DHT22;57623;53.608;10.004;2023-07-29T05:22:13;18.40;99.90
1578;DHT22;57623;53.608;10.004;2023-07-29T05:24:41;18.40;99.90
1578;DHT22;57623;53.608;10.004;2023-07-29T05:27:09;18.40;99.90
1578;DHT22;57623;53.608;10.004;2023-07-29T05:29:37;18.50;99.90
1578;DHT22;57623;53.608;10.004;2023-07-29T05:32:05;18.50;99.90
1578;DHT22;57623;53.608;10.004;2023-07-29T05:34:33;18.50;99.90
1578;DHT22;57623;53.608;10.004;2023-07-29T05:37:01;18.50;99.90
1578;DHT22;57623;53.608;10.004;2023-07-29T05:39:31;18.60;99.90
1578;DHT22;57623;53.608;10.004;2023-07-29T05:41:59;18.70;99.90
1578;DHT22;57623;53.608;10.004;2023-07-29T05:44:29;18.70;99.90
1578;DHT22;57623;53.608;10.004;2023-07-29T05:46:57;18.80;99.90
1578;DHT22;57623;53.608;10.004;2023-07-29T05:49:25;18.80;99.90
1578;DHT22;57623;53.608;10.004;2023-07-29T05:51:53;18.80;99.90
1578;DHT22;57623;53.608;10.004;2023-07-29T05:54:21;18.80;99.90
1578;DHT22;57623;53.608;10.004;2023-07-29T05:56:50;18.80;99.90
1578;DHT22;57623;53.608;10.004;2023-07-29T05:59:18;18.80;99.90
1578;DHT22;57623;53.608;10.004;2023-07-29T06:01:46;18.90;99.90
1578;DHT22;57623;53.608;10.004;2023-07-29T06:04:14;18.90;99.90
1578;DHT22;57623;53.608;10.004;2023-07-29T06:06:42;18.80;99.90
1578;DHT22;57623;53.608;10.004;2023-07-29T06:09:10;18.80;99.90
1578;DHT22;57623;53.608;10.004;2023-07-29T06:11:38;18.80;99.90
1578;DHT22;57623;53.608;10.004;2023-07-29T06:14:07;18.80;99.90
1578;DHT22;57623;53.608;10.004;2023-07-29T06:16:35;18.80;99.90
1578;DHT22;57623;53.608;10.004;2023-07-29T06:19:04;18.80;99.90
1578;DHT22;57623;53.608;10.004;2023-07-29T06:21:32;18.90;99.90
1578;DHT22;57623;53.608;10.004;2023-07-29T06:24:00;19.00;99.90
1578;DHT22;57623;53.608;10.004;2023-07-29T06:26:28;19.00;99.90
1578;DHT22;57623;53.608;10.004;2023-07-29T06:28:56;19.00;99.90
1578;DHT22;57623;53.608;10.004;2023-07-29T06:31:25;19.00;99.90
1578;DHT22;57623;53.608;10.004;2023-07-29T06:33:53;19.00;99.90
1578;DHT22;57623;53.608;10.004;2023-07-29T06:36:21;19.00;99.90
1578;DHT22;57623;53.608;10.004;2023-07-29T06:38:48;19.00;99.90
1578;DHT22;57623;53.608;10.004;2023-07-29T06:41:16;19.00;99.90
1578;DHT22;57623;53.608;10.004;2023-07-29T06:43:46;19.00;99.90
1578;DHT22;57623;53.608;10.004;2023-07-29T06:46:14;19.00;99.90
1578;DHT22;57623;53.608;10.004;2023-07-29T06:48:43;19.00;99.90
1578;DHT22;57623;53.608;10.004;2023-07-29T06:51:11;19.00;99.90
1578;DHT22;57623;53.608;10.004;2023-07-29T06:53:39;19.00;99.90
1578;DHT22;57623;53.608;10.004;2023-07-29T06:56:07;19.00;99.90
1578;DHT22;57623;53.608;10.004;2023-07-29T06:58:35;19.00;99.90
1578;DHT22;57623;53.608;10.004;2023-07-29T07:01:03;19.10;99.90
1578;DHT22;57623;53.608;10.004;2023-07-29T07:03:31;19.10;99.90
1578;DHT22;57623;53.608;10.004;2023-07-29T07:06:01;19.10;99.90
1578;DHT22;57623;53.608;10.004;2023-07-29T07:08:29;19.00;99.90
1578;DHT22;57623;53.608;10.004;2023-07-29T07:10:58;19.00;99.90
1578;DHT22;57623;53.608;10.004;2023-07-29T07:13:26;19.10;99.90
1578;DHT22;57623;53.608;10.004;2023-07-29T07:15:54;19.10;99.90
1578;DHT22;57623;53.608;10.004;2023-07-29T07:18:22;19.10;99.90
1578;DHT22;57623;53.608;10.004;2023-07-29T07:20:51;19.10;99.90
1578;DHT22;57623;53.608;10.004;2023-07-29T07:23:20;19.10;99.90
1578;DHT22;57623;53.608;10.004;2023-07-29T07:25:48;19.10;99.90
1578;DHT22;57623;53.608;10.004;2023-07-29T07:28:16;19.10;99.90
1578;DHT22;57623;53.608;10.004;2023-07-29T07:30:44;19.20;99.90
1578;DHT22;57623;53.608;10.004;2023-07-29T07:33:12;19.20;99.90
1578;DHT22;57623;53.608;10.004;2023-07-29T07:35:40;19.20;99.90
1578;DHT22;57623;53.608;10.004;2023-07-29T07:38:09;19.20;99.90
1578;DHT22;57623;53.608;10.004;2023-07-29T07:40:38;19.20;99.90
1578;DHT22;57623;53.608;10.004;2023-07-29T07:43:06;19.20;99.90
1578;DHT22;57623;53.608;10.004;2023-07-29T07:45:34;19.20;99.90
1578;DHT22;57623;53.608;10.004;2023-07-29T07:48:02;19.20;99.90
1578;DHT22;57623;53.608;10.004;2023-07-29T07:50:30;19.20;99.90
1578;DHT22;57623;53.608;10.004;2023-07-29T07:52:58;19.20;99.90
1578;DHT22;57623;53.608;10.004;2023-07-29T07:55:26;19.20;99.90
1578;DHT22;57623;53.608;10.004;2023-07-29T07:57:56;19.10;99.90
1578;DHT22;57623;53.608;10.004;2023-07-29T08:00:24;19.10;99.90
1578;DHT22;57623;53.608;10.004;2023-07-29T08:02:52;19.10;99.90
1578;DHT22;57623;53.608;10.004;2023-07-29T08:05:20;19.10;99.90
1578;DHT22;57623;53.608;10.004;2023-07-29T08:07:48;19.10;99.90
1578;DHT22;57623;53.608;10.004;2023-07-29T08:10:16;19.10;99.90
1578;DHT22;57623;53.608;10.004;2023-07-29T08:12:44;19.10;99.90
1578;DHT22;57623;53.608;10.004;2023-07-29T08:15:14;19.20;99.90
1578;DHT22;57623;53.608;10.004;2023-07-29T08:17:42;19.20;99.90
1578;DHT22;57623;53.608;10.004;2023-07-29T08:20:10;19.20;99.90
1578;DHT22;57623;53.608;10.004;2023-07-29T08:22:38;19.20;99.90
1578;DHT22;57623;53.608;10.004;2023-07-29T08:25:06;19.30;99.90
1578;DHT22;57623;53.608;10.004;2023-07-29T08:27:34;19.30;99.90
1578;DHT22;57623;53.608;10.004;2023-07-29T08:30:03;19.40;99.90
1578;DHT22;57623;53.608;10.004;2023-07-29T08:32:32;19.40;99.90
1578;DHT22;57623;53.608;10.004;2023-07-29T08:35:00;19.50;99.90
1578;DHT22;57623;53.608;10.004;2023-07-29T08:37:28;19.50;99.90
1578;DHT22;57623;53.608;10.004;2023-07-29T08:39:58;19.50;99.90
1578;DHT22;57623;53.608;10.004;2023-07-29T08:42:29;19.50;99.90
1578;DHT22;57623;53.608;10.004;2023-07-29T08:45:05;19.60;99.90
1578;DHT22;57623;53.608;10.004;2023-07-29T08:47:35;19.60;99.90
1578;DHT22;57623;53.608;10.004;2023-07-29T08:50:04;19.60;99.90
1578;DHT22;57623;53.608;10.004;2023-07-29T08:52:33;19.60;99.90
1578;DHT22;57623;53.608;10.004;2023-07-29T08:55:02;19.60;99.90
1578;DHT22;57623;53.608;10.004;2023-07-29T08:57:30;19.70;99.90
1578;DHT22;57623;53.608;10.004;2023-07-29T08:59:58;19.80;99.90
1578;DHT22;57623;53.608;10.004;2023-07-29T09:02:28;19.80;99.90
1578;DHT22;57623;53.608;10.004;2023-07-29T09:04:58;19.90;99.90
1578;DHT22;57623;53.608;10.004;2023-07-29T09:07:26;19.90;99.90
1578;DHT22;57623;53.608;10.004;2023-07-29T09:09:54;20.00;99.90
1578;DHT22;57623;53.608;10.004;2023-07-29T09:12:22;20.00;99.90
1578;DHT22;57623;53.608;10.004;2023-07-29T09:14:51;20.20;99.90
1578;DHT22;57623;53.608;10.004;2023-07-29T09:17:20;20.30;99.90
1578;DHT22;57623;53.608;10.004;2023-07-29T09:19:48;20.40;99.90
1578;DHT22;57623;53.608;10.004;2023-07-29T09:22:21;20.40;99.90
1578;DHT22;57623;53.608;10.004;2023-07-29T09:24:49;20.50;99.90
1578;DHT22;57623;53.608;10.004;2023-07-29T09:27:24;20.60;99.90
1578;DHT22;57623;53.608;10.004;2023-07-29T09:29:52;20.70;99.90
1578;DHT22;57623;53.608;10.004;2023-07-29T09:32:21;20.70;99.90
1578;DHT22;57623;53.608;10.004;2023-07-29T09:34:49;20.70;99.90
1578;DHT22;57623;53.608;10.004;2023-07-29T09:37:20;20.80;99.90
1578;DHT22;57623;53.608;10.004;2023-07-29T09:39:49;20.80;99.90
1578;DHT22;57623;53.608;10.004;2023-07-29T09:42:18;20.80;99.90
1578;DHT22;57623;53.608;10.004;2023-07-29T09:44:49;20.80;99.90
1578;DHT22;57623;53.608;10.004;2023-07-29T09:47:21;20.80;99.90
1578;DHT22;57623;53.608;10.004;2023-07-29T09:49:49;20.80;99.90
1578;DHT22;57623;53.608;10.004;2023-07-29T09:52:18;20.90;99.90
1578;DHT22;57623;53.608;10.004;2023-07-29T09:54:48;21.00;99.90
1578;DHT22;57623;53.608;10.004;2023-07-29T09:57:16;21.10;99.90
1578;DHT22;57623;53.608;10.004;2023-07-29T09:59:54;21.20;99.90
1578;DHT22;57623;53.608;10.004;2023-07-29T10:02:22;21.30;99.90
1578;DHT22;57623;53.608;10.004;2023-07-29T10:04:52;21.40;99.90
1578;DHT22;57623;53.608;10.004;2023-07-29T10:07:21;21.50;99.90
1578;DHT22;57623;53.608;10.004;2023-07-29T10:09:52;21.60;99.90
1578;DHT22;57623;53.608;10.004;2023-07-29T10:12:20;21.70;99.90
1578;DHT22;57623;53.608;10.004;2023-07-29T10:14:49;21.90;99.90
1578;DHT22;57623;53.608;10.004;2023-07-29T10:17:19;21.90;99.90
1578;DHT22;57623;53.608;10.004;2023-07-29T10:19:48;22.00;99.90
1578;DHT22;57623;53.608;10.004;2023-07-29T10:22:17;22.00;99.90
1578;DHT22;57623;53.608;10.004;2023-07-29T10:24:50;22.10;99.90
1578;DHT22;57623;53.608;10.004;2023-07-29T10:27:19;22.30;99.90
1578;DHT22;57623;53.608;10.004;2023-07-29T10:29:49;22.40;99.90
1578;DHT22;57623;53.608;10.004;2023-07-29T10:32:19;22.40;99.90
1578;DHT22;57623;53.608;10.004;2023-07-29T10:34:50;22.40;99.90
1578;DHT22;57623;53.608;10.004;2023-07-29T10:37:18;22.30;99.90
1578;DHT22;57623;53.608;10.004;2023-07-29T10:39:54;22.20;99.90
1578;DHT22;57623;53.608;10.004;2023-07-29T10:42:22;22.10;99.90
1578;DHT22;57623;53.608;10.004;2023-07-29T10:44:52;22.00;99.90
1578;DHT22;57623;53.608;10.004;2023-07-29T10:47:24;22.00;99.90
1578;DHT22;57623;53.608;10.004;2023-07-29T10:49:55;22.00;99.90
1578;DHT22;57623;53.608;10.004;2023-07-29T10:52:40;22.00;99.90
1578;DHT22;57623;53.608;10.004;2023-07-29T10:55:30;22.10;99.90
1578;DHT22;57623;53.608;10.004;2023-07-29T10:58:08;22.00;99.90
1578;DHT22;57623;53.608;10.004;2023-07-29T11:00:36;21.90;99.90
1578;DHT22;57623;53.608;10.004;2023-07-29T11:03:06;21.90;99.90
1578;DHT22;57623;53.608;10.004;2023-07-29T11:05:48;21.80;99.90
1578;DHT22;57623;53.608;10.004;2023-07-29T11:08:22;21.80;99.90
1578;DHT22;57623;53.608;10.004;2023-07-29T11:11:05;21.70;99.90
1578;DHT22;57623;53.608;10.004;2023-07-29T11:13:35;21.70;99.90
1578;DHT22;57623;53.608;10.004;2023-07-29T11:16:04;21.70;99.90
1578;DHT22;57623;53.608;10.004;2023-07-29T11:18:34;21.70;99.90
1578;DHT22;57623;53.608;10.004;2023-07-29T11:21:03;21.70;99.90
1578;DHT22;57623;53.608;10.004;2023-07-29T11:23:33;21.90;99.90
1578;DHT22;57623;53.608;10.004;2023-07-29T11:26:03;22.00;99.90
1578;DHT22;57623;53.608;10.004;2023-07-29T11:28:37;22.10;99.90
1578;DHT22;57623;53.608;10.004;2023-07-29T11:31:06;22.10;99.90
1578;DHT22;57623;53.608;10.004;2023-07-29T11:33:34;22.20;99.90
1578;DHT22;57623;53.608;10.004;2023-07-29T11:36:02;22.20;99.90
1578;DHT22;57623;53.608;10.004;2023-07-29T11:38:30;22.30;99.90
1578;DHT22;57623;53.608;10.004;2023-07-29T11:41:05;22.50;99.90
1578;DHT22;57623;53.608;10.004;2023-07-29T11:43:35;22.70;99.90
1578;DHT22;57623;53.608;10.004;2023-07-29T11:46:03;22.90;99.90
1578;DHT22;57623;53.608;10.004;2023-07-29T11:48:33;23.00;99.90
1578;DHT22;57623;53.608;10.004;2023-07-29T11:51:02;23.20;99.90
1578;DHT22;57623;53.608;10.004;2023-07-29T11:53:31;23.30;99.90
1578;DHT22;57623;53.608;10.004;2023-07-29T11:55:59;23.40;99.90
1578;DHT22;57623;53.608;10.004;2023-07-29T11:58:28;23.60;99.90
1578;DHT22;57623;53.608;10.004;2023-07-29T12:00:56;23.70;99.90
1578;DHT22;57623;53.608;10.004;2023-07-29T12:03:25;23.80;99.90
1578;DHT22;57623;53.608;10.004;2023-07-29T12:05:54;24.00;99.90
1578;DHT22;57623;53.608;10.004;2023-07-29T12:08:22;24.20;99.90
1578;DHT22;57623;53.608;10.004;2023-07-29T12:10:51;24.40;99.90
1578;DHT22;57623;53.608;10.004;2023-07-29T12:13:19;24.40;99.90
1578;DHT22;57623;53.608;10.004;2023-07-29T12:15:52;24.50;99.90
1578;DHT22;57623;53.608;10.004;2023-07-29T12:18:30;24.60;99.90
1578;DHT22;57623;53.608;10.004;2023-07-29T12:20:58;24.60;99.90
1578;DHT22;57623;53.608;10.004;2023-07-29T12:23:27;24.70;99.90
1578;DHT22;57623;53.608;10.004;2023-07-29T12:25:57;24.80;99.90
1578;DHT22;57623;53.608;10.004;2023-07-29T12:28:25;24.90;99.90
1578;DHT22;57623;53.608;10.004;2023-07-29T12:30:55;25.00;99.90
1578;DHT22;57623;53.608;10.004;2023-07-29T12:33:30;25.10;99.90
1578;DHT22;57623;53.608;10.004;2023-07-29T12:35:58;25.20;99.90
1578;DHT22;57623;53.608;10.004;2023-07-29T12:38:27;25.40;99.90
1578;DHT22;57623;53.608;10.004;2023-07-29T12:40:55;25.40;99.90
1578;DHT22;57623;53.608;10.004;2023-07-29T12:43:24;25.50;99.90
1578;DHT22;57623;53.608;10.004;2023-07-29T12:45:52;25.60;99.90
1578;DHT22;57623;53.608;10.004;2023-07-29T12:48:21;25.80;99.90
1578;DHT22;57623;53.608;10.004;2023-07-29T12:50:49;25.90;99.90
1578;DHT22;57623;53.608;10.004;2023-07-29T12:53:18;25.80;99.90
1578;DHT22;57623;53.608;10.004;2023-07-29T12:55:46;25.70;99.90
1578;DHT22;57623;53.608;10.004;2023-07-29T12:58:14;25.60;99.90
1578;DHT22;57623;53.608;10.004;2023-07-29T13:00:42;25.50;99.90
1578;DHT22;57623;53.608;10.004;2023-07-29T13:03:10;25.40;99.90
1578;DHT22;57623;53.608;10.004;2023-07-29T13:05:40;25.20;99.90
1578;DHT22;57623;53.608;10.004;2023-07-29T13:08:08;25.00;99.90
1578;DHT22;57623;53.608;10.004;2023-07-29T13:10:37;24.90;99.90
1578;DHT22;57623;53.608;10.004;2023-07-29T13:13:05;25.00;99.90
1578;DHT22;57623;53.608;10.004;2023-07-29T13:15:33;25.10;99.90
1578;DHT22;57623;53.608;10.004;2023-07-29T13:18:01;25.30;99.90
1578;DHT22;57623;53.608;10.004;2023-07-29T13:20:29;25.30;99.90
1578;DHT22;57623;53.608;10.004;2023-07-29T13:22:58;25.30;99.90
1578;DHT22;57623;53.608;10.004;2023-07-29T13:25:26;25.20;99.90
1578;DHT22;57623;53.608;10.004;2023-07-29T13:27:54;25.20;99.90
1578;DHT22;57623;53.608;10.004;2023-07-29T13:30:22;25.30;99.90
1578;DHT22;57623;53.608;10.004;2023-07-29T13:32:50;25.50;99.90
1578;DHT22;57623;53.608;10.004;2023-07-29T13:35:19;25.50;99.90
1578;DHT22;57623;53.608;10.004;2023-07-29T13:37:46;25.50;99.90
1578;DHT22;57623;53.608;10.004;2023-07-29T13:40:16;25.50;99.90
1578;DHT22;57623;53.608;10.004;2023-07-29T13:42:44;25.50;99.90
1578;DHT22;57623;53.608;10.004;2023-07-29T13:45:12;25.50;99.90
1578;DHT22;57623;53.608;10.004;2023-07-29T13:47:40;25.60;99.90
1578;DHT22;57623;53.608;10.004;2023-07-29T13:50:08;25.90;99.90
1578;DHT22;57623;53.608;10.004;2023-07-29T13:52:37;26.10;99.90
1578;DHT22;57623;53.608;10.004;2023-07-29T13:55:05;26.20;99.90
1578;DHT22;57623;53.608;10.004;2023-07-29T13:57:35;26.30;99.90
1578;DHT22;57623;53.608;10.004;2023-07-29T14:00:03;26.40;99.90
1578;DHT22;57623;53.608;10.004;2023-07-29T14:02:32;26.20;99.90
1578;DHT22;57623;53.608;10.004;2023-07-29T14:05:00;26.20;99.90
1578;DHT22;57623;53.608;10.004;2023-07-29T14:07:28;26.20;99.90
1578;DHT22;57623;53.608;10.004;2023-07-29T14:09:56;26.30;99.90
1578;DHT22;57623;53.608;10.004;2023-07-29T14:12:27;26.40;99.90
1578;DHT22;57623;53.608;10.004;2023-07-29T14:14:56;26.30;99.90
1578;DHT22;57623;53.608;10.004;2023-07-29T14:17:24;26.10;99.90
1578;DHT22;57623;53.608;10.004;2023-07-29T14:19:52;26.10;99.90
1578;DHT22;57623;53.608;10.004;2023-07-29T14:22:20;26.30;99.90
1578;DHT22;57623;53.608;10.004;2023-07-29T14:24:48;26.60;99.90
1578;DHT22;57623;53.608;10.004;2023-07-29T14:27:16;26.60;99.90
1578;DHT22;57623;53.608;10.004;2023-07-29T14:29:44;26.50;99.90
1578;DHT22;57623;53.608;10.004;2023-07-29T14:32:14;26.40;99.90
1578;DHT22;57623;53.608;10.004;2023-07-29T14:34:42;26.40;99.90
1578;DHT22;57623;53.608;10.004;2023-07-29T14:37:10;26.50;99.90
1578;DHT22;57623;53.608;10.004;2023-07-29T14:39:38;26.80;99.90
1578;DHT22;57623;53.608;10.004;2023-07-29T14:42:06;26.90;99.90
1578;DHT22;57623;53.608;10.004;2023-07-29T14:44:34;26.90;99.90
1578;DHT22;57623;53.608;10.004;2023-07-29T14:47:02;27.20;99.90
1578;DHT22;57623;53.608;10.004;2023-07-29T14:49:32;27.20;99.90
1578;DHT22;57623;53.608;10.004;2023-07-29T14:52:00;27.00;99.90
1578;DHT22;57623;53.608;10.004;2023-07-29T14:54:28;27.10;99.90
1578;DHT22;57623;53.608;10.004;2023-07-29T14:56:56;27.30;99.90
1578;DHT22;57623;53.608;10.004;2023-07-29T14:59:24;27.40;99.90
1578;DHT22;57623;53.608;10.004;2023-07-29T15:01:52;27.70;99.90
1578;DHT22;57623;53.608;10.004;2023-07-29T15:04:20;27.70;99.90
1578;DHT22;57623;53.608;10.004;2023-07-29T15:06:49;27.40;99.90
1578;DHT22;57623;53.608;10.004;2023-07-29T15:09:17;27.30;99.90
1578;DHT22;57623;53.608;10.004;2023-07-29T15:11:45;27.20;99.90
1578;DHT22;57623;53.608;10.004;2023-07-29T15:14:13;27.40;99.90
1578;DHT22;57623;53.608;10.004;2023-07-29T15:16:41;27.40;99.90
1578;DHT22;57623;53.608;10.004;2023-07-29T15:19:09;27.40;99.90
1578;DHT22;57623;53.608;10.004;2023-07-29T15:21:37;27.10;99.90
1578;DHT22;57623;53.608;10.004;2023-07-29T15:24:06;27.00;99.90
1578;DHT22;57623;53.608;10.004;2023-07-29T15:26:34;27.10;99.90
1578;DHT22;57623;53.608;10.004;2023-07-29T15:29:03;27.20;99.90
1578;DHT22;57623;53.608;10.004;2023-07-29T15:31:31;27.40;99.90
1578;DHT22;57623;53.608;10.004;2023-07-29T15:33:59;27.50;99.90
1578;DHT22;57623;53.608;10.004;2023-07-29T15:36:28;27.60;99.90
1578;DHT22;57623;53.608;10.004;2023-07-29T15:38:56;27.60;99.90
1578;DHT22;57623;53.608;10.004;2023-07-29T15:41:25;27.40;99.90